Time;durP1;ratioP1;P1;durP2;ratioP2;P2;SDS_P1;SDS_P2;PMS_P1;PMS_P2;Temp;Humidity;BMP_temperature;BMP_pressure;BME280_temperature;BME280_humidity;BME280_pressure;Samples;Min_cycle;Max_cycle;Signal;HPM_P1;HPM_P2
2023/02/25 00:02:30;;;;;;;9.05;2.92;;;15.50;56.40;;;;;;7492271;23;20089;-65
2023/02/25 00:05:32;;;;;;;5.28;2.85;;;15.50;56.50;;;;;;7492427;23;20038;-67
2023/02/25 00:08:33;;;;;;;8.75;2.67;;;15.40;56.60;;;;;;7490268;23;20008;-66
2023/02/25 00:11:34;;;;;;;5.53;2.47;;;15.40;56.80;;;;;;7492415;23;20090;-65
2023/02/25 00:14:35;;;;;;;4.82;2.00;;;15.40;56.90;;;;;;7492124;23;20071;-66
2023/02/25 00:17:39;;;;;;;3.67;1.92;;;15.40;57.00;;;;;;7491878;23;20075;-66
2023/02/25 00:20:40;;;;;;;2.83;1.85;;;15.30;57.10;;;;;;7492493;23;20012;-67
2023/02/25 00:23:46;;;;;;;3.45;2.08;;;15.30;57.40;;;;;;7467026;23;20012;-65
2023/02/25 00:26:47;;;;;;;3.53;1.70;;;15.20;57.50;;;;;;7492620;23;20011;-65
2023/02/25 00:29:52;;;;;;;2.38;1.52;;;15.10;57.60;;;;;;7490449;23;20319;-66
2023/02/25 00:32:52;;;;;;;4.80;1.67;;;15.10;57.70;;;;;;7466517;23;20026;-66
2023/02/25 00:35:53;;;;;;;4.75;1.67;;;15.10;57.60;;;;;;7491983;23;20003;-65
2023/02/25 00:38:56;;;;;;;6.60;1.98;;;15.00;57.60;;;;;;7490458;23;20394;-64
2023/02/25 00:41:57;;;;;;;5.07;1.60;;;14.90;57.70;;;;;;7493041;23;20015;-66
2023/02/25 00:44:58;;;;;;;3.40;1.60;;;14.90;57.60;;;;;;7490590;23;20282;-66
2023/02/25 00:47:59;;;;;;;3.83;1.40;;;14.80;57.50;;;;;;7489939;23;20018;-65
2023/02/25 00:51:10;;;;;;;4.72;1.40;;;14.80;57.60;;;;;;7490470;23;20390;-66
2023/02/25 00:54:11;;;;;;;1.67;0.85;;;14.70;57.70;;;;;;7490400;23;20008;-66
2023/02/25 00:57:12;;;;;;;6.40;1.10;;;14.60;57.70;;;;;;7490089;23;20485;-65
2023/02/25 01:00:17;;;;;;;1.38;0.82;;;14.50;57.70;;;;;;7491924;23;20091;-66
2023/02/25 01:03:17;;;;;;;2.55;1.08;;;14.50;57.80;;;;;;7492427;23;20425;-64
2023/02/25 01:06:19;;;;;;;1.27;0.85;;;14.40;57.80;;;;;;7492676;23;20013;-66
2023/02/25 01:09:20;;;;;;;2.83;1.08;;;14.40;57.80;;;;;;7493773;23;20019;-66
2023/02/25 01:12:21;;;;;;;4.65;0.90;;;14.30;57.70;;;;;;7494241;23;20007;-66
2023/02/25 01:15:22;;;;;;;2.42;0.75;;;14.30;57.60;;;;;;7470434;23;20014;-66
2023/02/25 01:18:23;;;;;;;1.58;0.68;;;14.30;57.50;;;;;;7469522;23;20441;-65
2023/02/25 01:21:30;;;;;;;0.95;0.63;;;14.30;57.30;;;;;;7493651;23;20128;-66
2023/02/25 01:24:32;;;;;;;2.80;1.00;;;14.30;57.40;;;;;;7470253;23;20019;-66
2023/02/25 01:27:33;;;;;;;2.67;0.98;;;14.30;57.40;;;;;;7470703;23;20015;-66
2023/02/25 01:30:36;;;;;;;1.05;0.65;;;14.30;57.50;;;;;;7495785;23;20039;-65
2023/02/25 01:33:37;;;;;;;1.95;0.90;;;14.20;57.60;;;;;;7494142;23;20003;-67
2023/02/25 01:36:38;;;;;;;4.32;1.10;;;14.20;57.80;;;;;;7470491;23;20011;-66
2023/02/25 01:39:40;;;;;;;5.50;0.90;;;14.20;58.00;;;;;;7495546;23;20007;-65
2023/02/25 01:42:41;;;;;;;2.85;1.05;;;14.10;58.10;;;;;;7494014;23;20077;-66
2023/02/25 01:45:43;;;;;;;2.80;1.05;;;14.10;58.30;;;;;;7470547;23;20036;-66
2023/02/25 01:48:44;;;;;;;7.22;0.98;;;14.00;58.40;;;;;;7469810;23;20453;-65
2023/02/25 01:51:49;;;;;;;6.70;1.10;;;14.00;58.60;;;;;;7496233;23;20007;-65
2023/02/25 01:54:56;;;;;;;5.68;1.33;;;13.90;58.50;;;;;;7495700;23;20389;-65
2023/02/25 01:58:00;;;;;;;2.40;1.20;;;13.90;58.60;;;;;;7470013;23;20038;-66
2023/02/25 02:01:01;;;;;;;1.52;0.95;;;13.90;58.70;;;;;;7494125;23;20015;-65
2023/02/25 02:04:03;;;;;;;4.45;1.33;;;13.80;58.70;;;;;;7495501;23;20018;-66
2023/02/25 02:07:05;;;;;;;2.70;1.30;;;13.90;58.80;;;;;;7469740;23;20429;-66
2023/02/25 02:10:07;;;;;;;7.97;1.00;;;13.50;58.60;;;;;;7495288;23;20019;-65
2023/02/25 02:13:09;;;;;;;1.83;0.90;;;13.90;58.80;;;;;;7494176;23;20014;-66
2023/02/25 02:16:47;;;;;;;3.85;1.13;;;13.80;58.80;;;;;;7495502;23;20015;-65
2023/02/25 02:19:48;;;;;;;2.65;1.10;;;13.70;58.70;;;;;;7350446;24;20017;-66
2023/02/25 02:22:55;;;;;;;3.15;1.20;;;13.70;58.90;;;;;;7351232;24;20061;-65
2023/02/25 02:25:56;;;;;;;2.85;1.27;;;13.60;59.10;;;;;;7351328;24;20017;-65
2023/02/25 02:29:06;;;;;;;4.28;1.13;;;13.60;59.10;;;;;;7350245;24;20440;-66
2023/02/25 02:32:17;;;;;;;1.95;1.05;;;13.60;59.10;;;;;;7350966;24;20642;-66
2023/02/25 02:35:46;;;;;;;5.07;1.20;;;13.70;59.20;;;;;;7328474;24;20013;-65
2023/02/25 02:39:04;;;;;;;1.52;0.90;;;13.70;59.10;;;;;;7350816;24;20270;-66
2023/02/25 02:42:22;;;;;;;7.53;1.20;;;13.70;59.10;;;;;;7350753;24;20097;-66
2023/02/25 02:45:33;;;;;;;1.63;0.70;;;13.70;59.20;;;;;;7351007;24;20016;-66
2023/02/25 02:48:44;;;;;;;8.50;2.05;;;13.60;59.10;;;;;;7327115;24;20041;-66
2023/02/25 02:52:01;;;;;;;2.35;1.00;;;13.60;59.10;;;;;;7350888;24;20107;-67
2023/02/25 02:55:07;;;;;;;4.28;0.88;;;13.60;59.10;;;;;;7369879;23;20381;-67
2023/02/25 02:58:21;;;;;;;4.25;1.33;;;13.60;59.20;;;;;;7492526;23;20091;-66
2023/02/25 03:01:32;;;;;;;1.40;0.93;;;13.60;59.30;;;;;;7491275;23;20075;-65
2023/02/25 03:04:37;;;;;;;3.45;1.15;;;13.50;59.40;;;;;;7493118;23;20011;-65
2023/02/25 03:07:44;;;;;;;2.83;1.23;;;13.10;59.40;;;;;;7492434;23;20086;-66
2023/02/25 03:10:45;;;;;;;5.75;1.52;;;13.50;59.80;;;;;;7467618;23;20011;-65
2023/02/25 03:13:46;;;;;;;6.20;1.55;;;13.40;60.00;;;;;;7491499;23;20008;-65
2023/02/25 03:16:58;;;;;;;7.57;2.10;;;13.30;60.30;;;;;;7467245;23;20074;-65
2023/02/25 03:20:09;;;;;;;2.88;1.45;;;13.20;60.90;;;;;;7491099;23;20330;-68
2023/02/25 03:23:22;;;;;;;6.47;1.52;;;13.10;61.20;;;;;;7491354;23;20021;-65
2023/02/25 03:26:28;;;;;;;3.13;1.10;;;13.20;61.50;;;;;;7492566;23;20432;-66
2023/02/25 03:29:34;;;;;;;2.55;1.30;;;13.10;61.50;;;;;;7468182;23;20043;-66
2023/02/25 03:32:37;;;;;;;4.45;1.70;;;13.10;61.60;;;;;;7490893;23;20094;-66
2023/02/25 03:35:41;;;;;;;4.38;1.17;;;13.10;61.60;;;;;;7493026;23;19999;-66
2023/02/25 03:38:46;;;;;;;3.47;1.23;;;13.20;61.70;;;;;;7466879;23;20007;-65
2023/02/25 03:41:52;;;;;;;1.52;0.82;;;13.10;61.50;;;;;;7467457;23;20118;-65
2023/02/25 03:44:57;;;;;;;2.35;1.45;;;13.20;61.40;;;;;;7467129;23;20019;-66
2023/02/25 03:47:59;;;;;;;3.22;0.85;;;13.20;61.10;;;;;;7443311;23;20026;-65
2023/02/25 03:51:03;;;;;;;7.65;1.15;;;13.30;61.00;;;;;;7466687;23;20022;-64
2023/02/25 03:54:05;;;;;;;5.47;1.48;;;13.30;60.70;;;;;;7467800;23;20014;-66
2023/02/25 03:57:08;;;;;;;2.90;1.23;;;13.40;60.50;;;;;;7466789;23;20062;-66
2023/02/25 04:00:18;;;;;;;3.63;1.25;;;13.40;60.40;;;;;;7490348;23;20027;-66
2023/02/25 04:03:19;;;;;;;2.03;1.27;;;13.40;60.20;;;;;;7492373;23;20033;-65
2023/02/25 04:06:21;;;;;;;3.63;1.10;;;13.40;60.00;;;;;;7492502;23;20015;-65
2023/02/25 04:09:23;;;;;;;9.90;1.10;;;13.50;60.00;;;;;;7466433;23;20018;-65
2023/02/25 04:12:26;;;;;;;2.15;0.98;;;13.50;59.80;;;;;;7466668;23;20018;-66
2023/02/25 04:15:28;;;;;;;3.78;1.17;;;13.50;59.80;;;;;;7466856;23;20344;-65
2023/02/25 04:18:29;;;;;;;1.70;0.88;;;13.40;59.80;;;;;;7490089;23;20093;-65
2023/02/25 04:21:35;;;;;;;4.53;1.25;;;13.40;60.00;;;;;;7490568;23;20346;-66
2023/02/25 04:24:36;;;;;;;2.90;0.98;;;13.30;60.10;;;;;;7492239;23;20082;-66
2023/02/25 04:27:37;;;;;;;2.50;0.80;;;13.20;60.10;;;;;;7466512;23;20037;-66
2023/02/25 04:30:38;;;;;;;2.88;1.10;;;13.20;60.40;;;;;;7467095;23;20034;-64
2023/02/25 04:33:39;;;;;;;4.32;1.40;;;13.20;60.30;;;;;;7492339;23;20414;-66
2023/02/25 04:36:40;;;;;;;6.43;1.65;;;13.20;60.40;;;;;;7492415;23;20007;-65
2023/02/25 04:39:41;;;;;;;11.05;1.80;;;13.20;60.50;;;;;;7489783;23;20374;-66
2023/02/25 04:42:42;;;;;;;7.53;2.08;;;13.30;60.50;;;;;;7490003;23;20050;-66
2023/02/25 04:45:43;;;;;;;5.60;2.00;;;13.30;60.50;;;;;;7491866;23;20059;-67
2023/02/25 04:48:44;;;;;;;5.25;2.08;;;13.40;60.50;;;;;;7491735;23;20015;-65
2023/02/25 04:51:46;;;;;;;1.95;1.17;;;13.40;60.40;;;;;;7466550;23;20007;-66
2023/02/25 04:54:46;;;;;;;2.83;1.25;;;13.40;60.20;;;;;;7490468;23;20007;-67
2023/02/25 04:57:47;;;;;;;3.13;1.20;;;13.40;60.20;;;;;;7491886;23;20264;-66
2023/02/25 05:00:49;;;;;;;4.55;1.75;;;13.40;60.20;;;;;;7492290;23;20019;-66
2023/02/25 05:03:55;;;;;;;10.10;1.95;;;13.40;60.00;;;;;;7466923;23;20070;-65
2023/02/25 05:06:56;;;;;;;2.08;1.20;;;13.40;60.00;;;;;;7492957;23;20034;-67
2023/02/25 05:09:57;;;;;;;1.83;1.00;;;13.40;60.00;;;;;;7492721;23;20007;-65
2023/02/25 05:12:58;;;;;;;2.40;1.20;;;13.40;59.90;;;;;;7492282;23;20008;-66
2023/02/25 05:16:07;;;;;;;8.05;1.45;;;13.40;59.80;;;;;;7466775;23;20011;-65
2023/02/25 05:19:07;;;;;;;8.80;1.67;;;13.40;60.20;;;;;;7466082;23;20066;-67
2023/02/25 05:22:09;;;;;;;4.28;1.30;;;13.30;59.80;;;;;;7492002;23;20007;-64
2023/02/25 05:25:10;;;;;;;4.05;1.25;;;13.30;59.80;;;;;;7466373;23;20127;-66
2023/02/25 05:28:11;;;;;;;6.43;1.50;;;13.30;59.90;;;;;;7491534;23;20022;-66
2023/02/25 05:31:12;;;;;;;5.70;1.40;;;13.30;60.00;;;;;;7491912;23;20347;-66
2023/02/25 05:34:13;;;;;;;6.35;2.15;;;13.30;60.00;;;;;;7492010;23;20086;-66
2023/02/25 05:37:14;;;;;;;4.60;1.63;;;13.30;60.00;;;;;;7489883;23;20437;-65
2023/02/25 05:40:15;;;;;;;11.57;2.10;;;13.30;60.10;;;;;;7492266;23;20030;-66
2023/02/25 05:43:16;;;;;;;3.88;1.80;;;13.30;60.30;;;;;;7492294;23;20022;-65
2023/02/25 05:46:17;;;;;;;3.13;1.60;;;13.30;60.50;;;;;;7492406;23;20007;-64
2023/02/25 05:49:17;;;;;;;6.82;1.80;;;13.20;60.40;;;;;;7491628;23;20159;-65
2023/02/25 05:52:18;;;;;;;3.78;1.92;;;13.20;60.40;;;;;;7492252;23;20015;-65
2023/02/25 05:55:20;;;;;;;5.00;1.90;;;13.20;60.30;;;;;;7497539;23;20011;-65
2023/02/25 05:58:22;;;;;;;3.17;1.85;;;13.20;60.40;;;;;;7497232;23;20075;-65
2023/02/25 06:01:26;;;;;;;2.35;1.77;;;13.10;60.50;;;;;;7496267;23;20008;-65
2023/02/25 06:04:27;;;;;;;5.78;2.40;;;13.10;60.40;;;;;;7504310;23;20043;-65
2023/02/25 06:07:30;;;;;;;3.85;2.20;;;13.10;60.30;;;;;;7500763;23;20042;-66
2023/02/25 06:10:37;;;;;;;5.43;1.95;;;13.00;60.30;;;;;;7498155;23;20014;-66
2023/02/25 06:13:38;;;;;;;5.85;1.63;;;12.90;60.30;;;;;;7493126;23;20086;-66
2023/02/25 06:16:39;;;;;;;3.92;2.03;;;12.90;60.30;;;;;;7494256;23;20003;-68
2023/02/25 06:19:40;;;;;;;3.45;1.80;;;12.90;60.10;;;;;;7492302;23;20022;-65
2023/02/25 06:22:42;;;;;;;2.78;1.67;;;12.90;60.10;;;;;;7494733;23;20011;-66
2023/02/25 06:25:43;;;;;;;4.70;2.10;;;12.80;59.90;;;;;;7494151;23;20027;-66
2023/02/25 06:28:44;;;;;;;6.40;1.98;;;12.80;59.70;;;;;;7493279;23;20490;-65
2023/02/25 06:31:45;;;;;;;3.60;1.80;;;12.80;59.50;;;;;;7492105;23;20033;-65
2023/02/25 06:34:46;;;;;;;4.55;1.90;;;12.70;59.40;;;;;;7493488;23;20402;-65
2023/02/25 06:37:47;;;;;;;2.50;1.75;;;12.70;59.30;;;;;;7493038;23;20085;-66
2023/02/25 06:40:48;;;;;;;2.42;1.50;;;12.60;59.40;;;;;;7468304;23;20348;-66
2023/02/25 06:43:50;;;;;;;2.85;1.52;;;12.60;59.10;;;;;;7492993;23;20007;-65
2023/02/25 06:46:55;;;;;;;2.60;1.50;;;12.50;59.00;;;;;;7491469;23;20378;-66
2023/02/25 06:49:56;;;;;;;2.20;1.27;;;12.50;59.00;;;;;;7491193;23;20011;-65
2023/02/25 06:52:58;;;;;;;3.78;1.48;;;12.50;58.90;;;;;;7493950;23;20334;-66
2023/02/25 06:55:59;;;;;;;2.22;1.63;;;12.50;58.90;;;;;;7493448;23;20014;-65
2023/02/25 06:59:00;;;;;;;4.07;1.83;;;12.50;58.80;;;;;;7492736;23;20015;-66
2023/02/25 07:02:01;;;;;;;3.35;1.42;;;12.40;58.60;;;;;;7493265;23;20086;-65
2023/02/25 07:05:04;;;;;;;1.67;1.38;;;12.40;58.60;;;;;;7467580;23;20011;-67
2023/02/25 07:08:05;;;;;;;4.00;1.48;;;12.40;58.40;;;;;;7491290;23;20043;-65
2023/02/25 07:11:35;;;;;;;2.15;1.15;;;12.40;58.40;;;;;;7493475;23;20256;-66
2023/02/25 07:14:36;;;;;;;3.30;1.58;;;12.50;58.30;;;;;;7493613;23;20007;-67
2023/02/25 07:17:37;;;;;;;1.30;1.20;;;12.50;58.20;;;;;;7492866;23;20003;-65
2023/02/25 07:20:38;;;;;;;3.72;1.00;;;12.50;57.90;;;;;;7493056;23;20398;-64
2023/02/25 07:23:39;;;;;;;2.53;1.35;;;12.50;57.70;;;;;;7468088;23;20015;-65
2023/02/25 07:26:40;;;;;;;3.28;1.45;;;12.50;57.60;;;;;;7493023;23;20004;-65
2023/02/25 07:29:41;;;;;;;1.70;1.20;;;12.50;57.50;;;;;;7492612;23;20035;-66
2023/02/25 07:32:42;;;;;;;2.78;1.30;;;12.50;57.30;;;;;;7467791;23;20008;-65
2023/02/25 07:35:43;;;;;;;1.73;1.20;;;12.50;57.10;;;;;;7493463;23;20011;-66
2023/02/25 07:38:47;;;;;;;2.70;1.80;;;12.50;57.00;;;;;;7492963;23;20086;-65
2023/02/25 07:41:48;;;;;;;2.63;1.67;;;12.50;57.00;;;;;;7467884;23;20019;-65
2023/02/25 07:44:51;;;;;;;2.17;1.52;;;12.50;57.00;;;;;;7491957;23;20081;-65
2023/02/25 07:47:52;;;;;;;3.03;1.60;;;12.50;56.80;;;;;;7494684;23;20086;-64
2023/02/25 07:50:54;;;;;;;1.50;1.17;;;12.50;56.80;;;;;;7491652;23;20027;-66
2023/02/25 07:53:56;;;;;;;1.38;1.27;;;12.50;56.70;;;;;;7493139;23;20015;-66
2023/02/25 07:56:57;;;;;;;1.92;1.40;;;12.50;56.80;;;;;;7492260;23;20337;-66
2023/02/25 07:59:58;;;;;;;3.70;1.40;;;12.50;56.70;;;;;;7492693;23;20019;-66
2023/02/25 08:02:59;;;;;;;3.10;1.50;;;12.50;56.70;;;;;;7492953;23;20410;-67
2023/02/25 08:06:01;;;;;;;5.35;1.35;;;12.50;56.70;;;;;;7492657;23;20070;-65
2023/02/25 08:09:04;;;;;;;5.13;1.60;;;12.50;56.80;;;;;;7492471;23;20090;-65
2023/02/25 08:12:05;;;;;;;2.78;1.40;;;12.50;56.80;;;;;;7467448;23;20477;-65
2023/02/25 08:15:06;;;;;;;3.47;1.95;;;12.40;56.70;;;;;;7492300;23;20007;-66
2023/02/25 08:18:07;;;;;;;3.05;1.58;;;12.40;56.80;;;;;;7467156;23;20015;-69
2023/02/25 08:21:10;;;;;;;5.65;1.52;;;12.40;56.90;;;;;;7467051;23;20037;-66
2023/02/25 08:24:11;;;;;;;2.55;1.55;;;12.50;57.00;;;;;;7492556;23;20026;-67
2023/02/25 08:27:12;;;;;;;3.03;1.90;;;12.50;57.00;;;;;;7490201;23;20337;-65
2023/02/25 08:30:34;;;;;;;4.32;1.42;;;12.50;56.90;;;;;;7491852;23;20093;-66
2023/02/25 08:33:35;;;;;;;7.60;2.00;;;12.60;57.00;;;;;;7492421;23;20007;-65
2023/02/25 08:36:36;;;;;;;3.22;2.00;;;12.60;57.00;;;;;;7492567;23;20560;-66
2023/02/25 08:39:37;;;;;;;1.67;1.48;;;12.70;56.80;;;;;;7466337;23;20016;-65
2023/02/25 08:42:38;;;;;;;2.53;1.55;;;12.70;56.80;;;;;;7492309;23;20086;-66
2023/02/25 08:45:40;;;;;;;2.20;1.92;;;12.80;56.80;;;;;;7492345;23;20007;-64
2023/02/25 08:48:42;;;;;;;2.70;1.60;;;12.70;56.60;;;;;;7490047;23;20019;-71
2023/02/25 08:51:43;;;;;;;4.22;2.15;;;12.70;56.70;;;;;;7490094;23;20338;-66
2023/02/25 08:54:44;;;;;;;7.20;2.00;;;12.70;56.70;;;;;;7489999;23;20320;-66
2023/02/25 08:57:44;;;;;;;4.10;1.45;;;12.70;56.80;;;;;;7491010;23;20015;-67
2023/02/25 09:00:48;;;;;;;3.65;2.13;;;12.80;56.80;;;;;;7491285;23;20007;-66
2023/02/25 09:03:50;;;;;;;3.65;2.03;;;12.80;56.70;;;;;;7490340;23;20015;-68
2023/02/25 09:06:52;;;;;;;2.78;2.00;;;12.80;56.70;;;;;;7492346;23;20011;-67
2023/02/25 09:09:53;;;;;;;3.78;1.60;;;12.80;56.70;;;;;;7490444;23;20115;-66
2023/02/25 09:12:54;;;;;;;4.55;2.15;;;12.90;56.70;;;;;;7491786;23;20007;-67
2023/02/25 09:15:58;;;;;;;5.70;1.75;;;12.90;56.50;;;;;;7491761;23;19999;-67
2023/02/25 09:18:59;;;;;;;2.97;2.05;;;12.90;56.30;;;;;;7490451;23;20095;-64
2023/02/25 09:22:00;;;;;;;3.63;1.45;;;12.80;56.10;;;;;;7490340;23;20015;-66
2023/02/25 09:25:03;;;;;;;3.10;1.63;;;12.80;56.10;;;;;;7491802;23;20008;-67
2023/02/25 09:28:04;;;;;;;2.90;1.70;;;12.80;56.10;;;;;;7493328;23;20075;-66
2023/02/25 09:31:04;;;;;;;3.38;1.90;;;12.80;56.10;;;;;;7494022;23;20030;-66
2023/02/25 09:34:08;;;;;;;2.22;1.85;;;12.80;56.00;;;;;;7494580;23;20011;-65
2023/02/25 09:37:11;;;;;;;7.25;1.83;;;12.80;56.00;;;;;;7493899;23;20018;-65
2023/02/25 09:40:17;;;;;;;8.13;2.17;;;12.90;56.00;;;;;;7468547;23;20011;-66
2023/02/25 09:43:29;;;;;;;2.15;1.45;;;12.90;55.90;;;;;;7494270;23;20015;-66
2023/02/25 09:46:31;;;;;;;6.85;1.80;;;13.00;55.80;;;;;;7493907;23;20077;-66
2023/02/25 09:49:45;;;;;;;5.20;1.70;;;13.00;55.60;;;;;;7493516;23;20097;-66
2023/02/25 09:52:49;;;;;;;9.10;1.75;;;13.00;55.50;;;;;;7492323;23;20018;-67
2023/02/25 09:55:51;;;;;;;8.02;1.70;;;12.90;55.40;;;;;;7494123;23;20058;-68
2023/02/25 09:59:01;;;;;;;5.72;1.90;;;12.90;55.60;;;;;;7491358;23;20093;-66
2023/02/25 10:02:20;;;;;;;1.98;1.45;;;12.90;55.70;;;;;;7491926;23;20015;-65
2023/02/25 10:05:39;;;;;;;3.10;1.70;;;13.00;55.80;;;;;;7493926;23;20317;-65
2023/02/25 10:09:09;;;;;;;4.85;2.00;;;13.00;55.70;;;;;;7492901;23;20019;-66
2023/02/25 10:12:19;;;;;;;2.95;1.80;;;13.00;55.60;;;;;;7493551;23;20011;-67
2023/02/25 10:15:50;;;;;;;5.30;1.70;;;13.00;55.70;;;;;;7468395;23;20338;-65
2023/02/25 10:19:19;;;;;;;6.68;1.98;;;13.10;55.70;;;;;;7494128;23;20011;-66
2023/02/25 10:22:55;;;;;;;4.28;2.08;;;13.10;55.60;;;;;;7495338;23;20015;-67
2023/02/25 10:26:13;;;;;;;3.45;1.80;;;13.20;55.40;;;;;;7495587;23;20083;-65
2023/02/25 10:29:34;;;;;;;7.32;4.03;;;13.30;55.30;;;;;;7494782;23;20094;-67
2023/02/25 10:32:38;;;;;;;4.30;1.67;;;13.40;55.20;;;;;;7493398;23;20011;-66
2023/02/25 10:35:40;;;;;;;4.18;1.67;;;13.50;55.10;;;;;;7493525;23;20007;-67
2023/02/25 10:38:44;;;;;;;6.13;2.00;;;13.50;55.00;;;;;;7492520;23;20401;-67
2023/02/25 10:41:45;;;;;;;3.95;1.75;;;13.50;55.00;;;;;;7493729;23;20019;-65
2023/02/25 10:44:46;;;;;;;4.30;2.03;;;13.60;54.90;;;;;;7494088;23;20018;-67
2023/02/25 10:47:54;;;;;;;10.98;2.08;;;13.50;54.70;;;;;;7493035;23;20029;-68
2023/02/25 10:51:12;;;;;;;5.97;2.13;;;13.50;54.70;;;;;;7467707;23;20012;-67
2023/02/25 10:54:14;;;;;;;3.72;2.03;;;13.60;54.80;;;;;;7493082;23;20118;-66
2023/02/25 10:57:17;;;;;;;3.20;1.85;;;13.60;54.60;;;;;;7491104;23;20434;-66
2023/02/25 11:00:33;;;;;;;5.57;2.47;;;13.70;54.60;;;;;;7492878;23;20011;-66
2023/02/25 11:03:57;;;;;;;6.20;1.83;;;13.80;54.60;;;;;;7491076;23;20063;-67
2023/02/25 11:06:58;;;;;;;3.38;2.10;;;13.90;54.40;;;;;;7492666;23;20063;-67
2023/02/25 11:10:11;;;;;;;4.32;2.45;;;14.00;54.20;;;;;;7490887;23;20008;-66
2023/02/25 11:13:28;;;;;;;3.55;1.60;;;14.20;54.00;;;;;;7490846;23;20105;-67
2023/02/25 11:16:31;;;;;;;9.95;2.22;;;14.20;53.80;;;;;;7467369;23;20011;-68
2023/02/25 11:19:42;;;;;;;3.50;1.90;;;14.20;53.60;;;;;;7492101;23;20095;-66
2023/02/25 11:22:45;;;;;;;3.42;2.20;;;14.20;53.70;;;;;;7490120;23;20431;-65
2023/02/25 11:25:46;;;;;;;7.90;2.08;;;14.20;53.60;;;;;;7490442;23;20015;-66
2023/02/25 11:28:48;;;;;;;5.10;2.58;;;14.20;53.50;;;;;;7491496;23;20015;-66
2023/02/25 11:32:06;;;;;;;6.45;2.70;;;14.30;53.50;;;;;;7492355;23;20003;-65
2023/02/25 11:35:15;;;;;;;4.13;1.60;;;14.20;53.40;;;;;;7492300;23;20089;-67
2023/02/25 11:38:31;;;;;;;12.02;2.40;;;14.30;53.40;;;;;;7490476;23;20091;-67
2023/02/25 11:41:32;;;;;;;5.50;2.45;;;14.30;53.40;;;;;;7492508;23;20016;-66
2023/02/25 11:44:43;;;;;;;4.97;2.13;;;14.30;53.30;;;;;;7492285;23;20342;-67
2023/02/25 11:47:44;;;;;;;9.15;2.35;;;14.30;53.30;;;;;;7491558;23;20086;-66
2023/02/25 11:50:53;;;;;;;4.05;2.47;;;14.30;53.10;;;;;;7491598;23;20070;-67
2023/02/25 11:54:13;;;;;;;5.28;3.05;;;14.30;53.20;;;;;;7491631;23;20059;-66
2023/02/25 11:57:42;;;;;;;3.78;2.22;;;14.30;53.20;;;;;;7491572;23;20460;-66
2023/02/25 12:00:49;;;;;;;;;;;14.40;53.10;;;;;;7349562;24;20350;-66
2023/02/25 12:04:01;;;;;;;5.95;2.10;;;14.30;52.90;;;;;;7349487;24;19919;-66
2023/02/25 12:07:34;;;;;;;8.15;2.83;;;14.40;52.80;;;;;;7349358;24;20039;-66
2023/02/25 12:10:58;;;;;;;3.85;2.40;;;14.40;52.80;;;;;;7326281;24;20074;-66
2023/02/25 12:14:25;;;;;;;3.83;2.55;;;14.40;52.60;;;;;;7349366;24;20630;-67
2023/02/25 12:18:09;;;;;;;5.63;2.38;;;14.40;52.60;;;;;;7346176;24;20013;-66
2023/02/25 12:21:18;;;;;;;5.97;2.33;;;14.50;52.60;;;;;;7281151;24;20062;-67
2023/02/25 12:24:57;;;;;;;5.82;2.50;;;14.50;52.30;;;;;;7281065;24;20104;-65
2023/02/25 12:28:13;;;;;;;5.75;2.72;;;14.50;52.30;;;;;;7215072;24;20018;-64
2023/02/25 12:31:34;;;;;;;7.40;2.15;;;14.50;52.00;;;;;;7215356;24;20094;-67
2023/02/25 12:34:50;;;;;;;7.80;2.70;;;14.50;52.00;;;;;;7215567;24;20099;-65
2023/02/25 12:38:07;;;;;;;7.55;2.50;;;14.50;52.50;;;;;;7278063;24;20013;-65
2023/02/25 12:41:20;;;;;;;6.50;1.92;;;14.50;51.90;;;;;;7315342;24;20069;-66
2023/02/25 12:44:55;;;;;;;9.75;2.55;;;14.50;51.90;;;;;;7314634;24;20116;-66
2023/02/25 12:48:08;;;;;;;3.88;2.35;;;14.50;51.70;;;;;;7291164;24;20580;-66
2023/02/25 12:51:35;;;;;;;5.50;2.13;;;14.50;51.50;;;;;;7314665;24;20031;-66
2023/02/25 12:54:45;;;;;;;6.80;3.05;;;14.50;52.30;;;;;;7305731;24;20415;-68
2023/02/25 12:58:14;;;;;;;4.18;2.33;;;14.50;51.80;;;;;;7392509;23;20015;-66
2023/02/25 13:01:31;;;;;;;5.07;2.22;;;14.50;51.90;;;;;;7466824;23;20169;-67
2023/02/25 13:04:50;;;;;;;4.40;2.03;;;14.40;52.00;;;;;;7466347;23;20007;-66
2023/02/25 13:07:57;;;;;;;11.15;2.65;;;14.40;52.00;;;;;;7491213;23;20010;-66
2023/02/25 13:11:29;;;;;;;7.85;2.55;;;14.30;52.10;;;;;;7491247;23;20014;-66
2023/02/25 13:15:13;;;;;;;3.38;1.90;;;14.40;52.20;;;;;;7465907;23;20007;-67
2023/02/25 13:18:41;;;;;;;3.33;2.00;;;14.40;52.20;;;;;;7490878;23;20018;-66
2023/02/25 13:22:15;;;;;;;3.45;2.17;;;14.40;52.20;;;;;;7489128;23;20314;-66
2023/02/25 13:25:27;;;;;;;3.65;1.58;;;14.50;52.20;;;;;;7490712;23;20438;-66
2023/02/25 13:28:34;;;;;;;5.72;2.88;;;14.50;52.20;;;;;;7489977;23;20007;-67
2023/02/25 13:31:51;;;;;;;8.05;2.58;;;14.60;52.10;;;;;;7490743;23;20047;-65
2023/02/25 13:35:04;;;;;;;7.00;2.30;;;14.60;52.00;;;;;;7490967;23;20136;-66
2023/02/25 13:38:13;;;;;;;3.80;2.20;;;14.70;51.80;;;;;;7491160;23;20338;-68
2023/02/25 13:41:30;;;;;;;21.42;2.92;;;14.60;51.70;;;;;;7491133;23;20100;-66
2023/02/25 13:44:56;;;;;;;7.47;2.58;;;14.60;51.80;;;;;;7490934;23;20153;-67
2023/02/25 13:48:22;;;;;;;7.22;2.45;;;14.60;51.70;;;;;;7489076;23;20030;-67
2023/02/25 13:51:46;;;;;;;4.22;2.55;;;14.70;51.60;;;;;;7491626;23;20166;-68
2023/02/25 13:55:22;;;;;;;7.07;2.53;;;14.80;51.40;;;;;;7490950;23;20011;-66
2023/02/25 13:58:41;;;;;;;4.43;2.33;;;14.90;51.20;;;;;;7489479;23;20023;-68
2023/02/25 14:01:55;;;;;;;5.57;2.65;;;15.10;50.30;;;;;;7490968;23;20022;-67
2023/02/25 14:05:11;;;;;;;6.95;2.25;;;15.10;50.80;;;;;;7489199;23;20011;-65
2023/02/25 14:08:21;;;;;;;5.15;2.80;;;15.30;50.50;;;;;;7490699;23;20387;-66
2023/02/25 14:11:28;;;;;;;8.70;3.00;;;15.50;50.10;;;;;;7488536;23;20103;-67
2023/02/25 14:14:52;;;;;;;4.88;2.63;;;15.60;49.80;;;;;;7490307;23;20047;-67
2023/02/25 14:18:11;;;;;;;9.80;3.30;;;15.70;49.60;;;;;;7327183;24;20013;-66
2023/02/25 14:21:43;;;;;;;6.95;3.00;;;15.70;49.30;;;;;;7329802;24;20055;-66
2023/02/25 14:25:16;;;;;;;6.00;2.78;;;15.60;49.30;;;;;;7345022;24;20027;-67
2023/02/25 14:28:54;;;;;;;9.07;2.60;;;15.50;49.30;;;;;;7349022;24;20017;-67
2023/02/25 14:32:15;;;;;;;4.22;2.40;;;15.40;49.40;;;;;;7349644;24;20123;-66
2023/02/25 14:35:45;;;;;;;6.47;2.85;;;15.40;49.50;;;;;;7349474;24;20013;-66
2023/02/25 14:38:51;;;;;;;5.45;2.78;;;15.40;49.60;;;;;;7349273;24;20132;-66
2023/02/25 14:42:04;;;;;;;4.65;2.28;;;15.40;49.60;;;;;;7327464;24;20144;-68
2023/02/25 14:45:08;;;;;;;5.65;2.50;;;15.40;49.50;;;;;;7349472;24;20051;-65
2023/02/25 14:48:35;;;;;;;6.97;2.92;;;15.30;49.40;;;;;;7349326;24;20040;-67
2023/02/25 14:52:03;;;;;;;9.90;2.72;;;15.30;49.50;;;;;;7327855;24;20084;-65
2023/02/25 14:55:16;;;;;;;8.52;2.60;;;15.20;49.60;;;;;;7430132;23;20043;-66
2023/02/25 14:58:40;;;;;;;4.80;2.53;;;15.20;49.70;;;;;;7493207;23;20306;-65
2023/02/25 15:01:59;;;;;;;4.10;2.63;;;15.10;49.60;;;;;;7466544;23;20011;-65
2023/02/25 15:05:24;;;;;;;6.05;2.38;;;15.10;49.70;;;;;;7491841;23;20098;-66
2023/02/25 15:08:52;;;;;;;12.73;2.88;;;15.10;49.90;;;;;;7490986;23;20011;-68
2023/02/25 15:12:05;;;;;;;6.15;2.58;;;15.10;49.90;;;;;;7490219;23;20091;-67
2023/02/25 15:15:22;;;;;;;3.13;2.08;;;15.00;49.80;;;;;;7491714;23;20018;-67
2023/02/25 15:18:50;;;;;;;5.32;2.60;;;15.00;49.90;;;;;;7490842;23;20015;-65
2023/02/25 15:22:14;;;;;;;4.10;2.20;;;14.90;50.00;;;;;;7491989;23;20323;-65
2023/02/25 15:25:22;;;;;;;4.90;2.38;;;14.80;50.10;;;;;;7465976;23;20061;-67
2023/02/25 15:28:29;;;;;;;6.55;2.83;;;14.80;50.10;;;;;;7488848;23;20106;-65
2023/02/25 15:31:32;;;;;;;5.47;2.30;;;14.70;50.20;;;;;;7489610;23;20023;-66
2023/02/25 15:34:36;;;;;;;3.80;2.20;;;14.70;51.00;;;;;;7491946;23;20018;-67
2023/02/25 15:37:56;;;;;;;12.30;3.28;;;14.70;50.40;;;;;;7489332;23;20373;-67
2023/02/25 15:40:58;;;;;;;8.15;3.30;;;14.80;50.50;;;;;;7443025;23;20079;-67
2023/02/25 15:44:12;;;;;;;11.50;3.35;;;14.80;50.50;;;;;;7466710;23;20016;-67
2023/02/25 15:47:27;;;;;;;5.93;2.85;;;14.80;50.40;;;;;;7491897;23;20017;-66
2023/02/25 15:50:48;;;;;;;6.70;3.50;;;14.70;50.50;;;;;;7488980;23;20011;-66
2023/02/25 15:53:49;;;;;;;9.70;3.92;;;14.70;50.60;;;;;;7472740;23;20051;-67
2023/02/25 15:56:51;;;;;;;7.53;3.28;;;14.60;50.70;;;;;;7491744;23;20088;-67
2023/02/25 15:59:56;;;;;;;7.70;3.78;;;14.60;50.90;;;;;;7491813;23;20047;-67
2023/02/25 16:02:58;;;;;;;10.05;3.72;;;14.50;50.90;;;;;;7489966;23;20338;-68
2023/02/25 16:06:10;;;;;;;8.25;3.83;;;14.50;51.00;;;;;;7491166;23;20014;-67
2023/02/25 16:09:17;;;;;;;8.23;3.72;;;14.40;51.10;;;;;;7488646;23;20031;-66
2023/02/25 16:12:19;;;;;;;6.55;3.45;;;14.40;51.30;;;;;;7490999;23;20003;-68
2023/02/25 16:15:37;;;;;;;9.50;3.47;;;14.50;51.30;;;;;;7465871;23;20019;-67
2023/02/25 16:18:46;;;;;;;10.85;3.35;;;14.40;51.40;;;;;;7490612;23;20050;-68